createdAt,value
2023-03-27T00:02:08.980Z,13.41
2023-03-27T00:04:35.921Z,13.52
2023-03-27T00:07:04.384Z,13.48
2023-03-27T00:09:32.403Z,13.45
2023-03-27T00:12:01.084Z,13.42
2023-03-27T00:14:28.001Z,13.11
2023-03-27T00:16:54.914Z,13.34
2023-03-27T00:19:21.859Z,13.30
2023-03-27T00:21:49.204Z,13.26
2023-03-27T00:24:16.259Z,12.66
2023-03-27T00:26:43.326Z,12.98
2023-03-27T00:29:10.671Z,13.15
2023-03-27T00:31:37.462Z,12.99
2023-03-27T00:34:04.205Z,13.01
2023-03-27T00:36:31.543Z,12.95
2023-03-27T00:38:58.473Z,12.97
2023-03-27T00:41:26.458Z,12.97
2023-03-27T00:43:54.255Z,12.57
2023-03-27T00:46:32.054Z,12.77
2023-03-27T00:49:00.217Z,12.95
2023-03-27T00:51:26.964Z,11.00
2023-03-27T00:53:54.254Z,12.87
2023-03-27T00:56:21.962Z,12.84
2023-03-27T00:59:00.905Z,12.79
2023-03-27T01:01:28.570Z,12.78
2023-03-27T01:03:55.918Z,12.57
2023-03-27T01:06:23.089Z,12.76
2023-03-27T01:08:49.792Z,12.74
2023-03-27T01:11:38.451Z,12.74
2023-03-27T01:14:08.049Z,12.72
2023-03-27T01:17:02.801Z,12.71
2023-03-27T01:19:45.339Z,12.71
2023-03-27T01:22:30.830Z,12.70
2023-03-27T01:25:16.219Z,12.68
2023-03-27T01:28:04.699Z,12.63
2023-03-27T01:30:59.459Z,12.49
2023-03-27T01:34:11.718Z,12.54
2023-03-27T01:37:06.737Z,12.48
2023-03-27T01:39:40.378Z,11.84
2023-03-27T01:42:16.754Z,12.33
2023-03-27T01:44:49.751Z,12.18
2023-03-27T01:47:55.476Z,12.38
2023-03-27T01:50:35.973Z,12.36
2023-03-27T01:53:05.968Z,12.34
2023-03-27T01:55:36.165Z,12.29
2023-03-27T01:58:08.540Z,12.33
2023-03-27T02:00:51.879Z,12.29
2023-03-27T02:03:27.387Z,11.85
2023-03-27T02:06:06.780Z,12.06
2023-03-27T02:08:50.379Z,12.31
2023-03-27T02:11:17.400Z,12.07
2023-03-27T02:13:48.154Z,11.69
2023-03-27T02:16:17.791Z,12.23
2023-03-27T02:18:47.894Z,12.07
2023-03-27T02:21:15.426Z,12.16
2023-03-27T02:23:42.481Z,12.13
2023-03-27T02:26:12.188Z,11.93
2023-03-27T02:28:41.810Z,12.07
2023-03-27T02:31:35.069Z,12.05
2023-03-27T02:34:08.156Z,12.03
2023-03-27T02:36:38.280Z,11.88
2023-03-27T02:39:14.001Z,12.01
2023-03-27T02:42:00.571Z,11.39
2023-03-27T02:44:47.382Z,12.01
2023-03-27T02:47:25.957Z,11.37
2023-03-27T02:49:54.154Z,11.89
2023-03-27T02:52:27.320Z,11.98
2023-03-27T02:54:56.865Z,11.86
2023-03-27T02:57:26.677Z,12.02
2023-03-27T02:59:55.963Z,11.99
2023-03-27T03:02:29.781Z,11.88
2023-03-27T03:05:09.378Z,11.74
2023-03-27T03:07:38.338Z,12.18
2023-03-27T03:10:09.462Z,11.57
2023-03-27T03:12:36.598Z,11.93
2023-03-27T03:15:03.565Z,12.16
2023-03-27T03:17:30.337Z,12.12
2023-03-27T03:19:57.288Z,12.08
2023-03-27T03:22:24.097Z,11.92
2023-03-27T03:24:51.169Z,11.77
2023-03-27T03:27:21.277Z,11.94
2023-03-27T03:29:48.687Z,11.89
2023-03-27T03:32:15.712Z,11.81
2023-03-27T03:34:46.889Z,11.76
2023-03-27T03:37:13.598Z,11.40
2023-03-27T03:39:40.338Z,11.56
2023-03-27T03:42:07.265Z,11.61
2023-03-27T03:44:34.682Z,11.66
2023-03-27T03:47:01.529Z,11.75
2023-03-27T03:49:28.328Z,11.80
2023-03-27T03:52:04.268Z,11.69
2023-03-27T03:54:33.177Z,11.62
2023-03-27T03:57:00.161Z,11.82
2023-03-27T03:59:27.085Z,11.70
2023-03-27T04:01:54.446Z,11.79
2023-03-27T04:04:21.321Z,11.51
2023-03-27T04:06:48.146Z,11.60
2023-03-27T04:09:15.053Z,11.67
2023-03-27T04:11:42.018Z,11.59
2023-03-27T04:14:08.822Z,11.33
2023-03-27T04:16:35.745Z,11.41
2023-03-27T04:19:03.316Z,11.67
2023-03-27T04:21:30.269Z,10.94
2023-03-27T04:24:02.886Z,11.51
2023-03-27T04:26:29.948Z,11.55
2023-03-27T04:28:56.883Z,11.63
2023-03-27T04:31:23.947Z,11.51
2023-03-27T04:33:52.559Z,11.43
2023-03-27T04:36:19.671Z,11.55
2023-03-27T04:38:48.155Z,11.61
2023-03-27T04:41:14.968Z,11.42
2023-03-27T04:43:42.087Z,11.45
2023-03-27T04:46:09.085Z,11.45
2023-03-27T04:48:39.029Z,11.46
2023-03-27T04:51:06.830Z,11.22
2023-03-27T04:53:36.270Z,11.31
2023-03-27T04:56:03.584Z,11.52
2023-03-27T04:58:30.397Z,11.42
2023-03-27T05:00:58.027Z,11.55
2023-03-27T05:03:26.193Z,11.55
2023-03-27T05:05:53.863Z,11.54
2023-03-27T05:08:20.769Z,11.47
2023-03-27T05:10:47.506Z,11.41
2023-03-27T05:13:14.347Z,11.52
2023-03-27T05:15:41.497Z,11.37
2023-03-27T05:18:09.202Z,11.12
2023-03-27T05:20:36.415Z,11.39
2023-03-27T05:23:03.427Z,11.32
2023-03-27T05:25:31.145Z,11.26
2023-03-27T05:27:58.224Z,10.89
2023-03-27T05:30:26.460Z,11.14
2023-03-27T05:32:53.756Z,11.02
2023-03-27T05:35:22.558Z,10.98
2023-03-27T05:37:50.388Z,11.19
2023-03-27T05:40:20.676Z,10.90
2023-03-27T05:42:47.731Z,11.32
2023-03-27T05:45:14.664Z,11.22
2023-03-27T05:47:46.502Z,10.99
2023-03-27T05:50:14.627Z,11.31
2023-03-27T05:52:41.931Z,10.59
2023-03-27T05:55:09.216Z,11.09
2023-03-27T05:57:39.765Z,11.19
2023-03-27T06:00:16.035Z,11.08
2023-03-27T06:02:43.708Z,11.14
2023-03-27T06:05:13.513Z,11.10
2023-03-27T06:07:42.919Z,11.02
2023-03-27T06:10:14.152Z,10.99
2023-03-27T06:12:41.870Z,11.01
2023-03-27T06:15:09.641Z,10.99
2023-03-27T06:17:36.688Z,10.99
2023-03-27T06:20:11.049Z,10.65
2023-03-27T06:22:51.952Z,10.90
2023-03-27T06:25:20.380Z,10.91
2023-03-27T06:27:50.336Z,10.84
2023-03-27T06:30:18.995Z,10.50
2023-03-27T06:32:47.001Z,10.55
2023-03-27T06:35:14.814Z,10.62
2023-03-27T06:37:42.727Z,10.43
2023-03-27T06:40:10.576Z,10.47
2023-03-27T06:42:38.610Z,10.48
2023-03-27T06:45:06.085Z,10.49
2023-03-27T06:47:36.349Z,9.70
2023-03-27T06:50:07.642Z,10.60
2023-03-27T06:52:34.375Z,10.64
2023-03-27T06:55:03.278Z,10.77
2023-03-27T06:57:30.227Z,10.96
2023-03-27T06:59:59.603Z,11.19
2023-03-27T07:02:27.681Z,11.40
2023-03-27T07:05:04.259Z,11.34
2023-03-27T07:07:32.300Z,11.71
2023-03-27T07:09:59.209Z,11.84
2023-03-27T07:12:26.338Z,11.96
2023-03-27T07:14:53.178Z,12.05
2023-03-27T07:17:19.940Z,12.06
2023-03-27T07:19:46.846Z,12.27
2023-03-27T07:22:13.744Z,12.42
2023-03-27T07:24:41.618Z,12.55
2023-03-27T07:27:08.427Z,12.75
2023-03-27T07:29:37.177Z,12.95
2023-03-27T07:32:08.078Z,12.72
2023-03-27T07:34:36.220Z,13.10
2023-03-27T07:37:03.137Z,13.48
2023-03-27T07:39:30.011Z,13.59
2023-03-27T07:41:57.013Z,13.77
2023-03-27T07:44:23.917Z,13.63
2023-03-27T07:46:52.800Z,14.11
2023-03-27T07:49:19.646Z,14.34
2023-03-27T07:52:07.039Z,14.61
2023-03-27T07:54:33.828Z,14.69
2023-03-27T07:57:01.397Z,14.73
2023-03-27T07:59:28.370Z,14.79
2023-03-27T08:01:55.643Z,14.94
2023-03-27T08:04:22.498Z,14.99
2023-03-27T08:06:51.760Z,15.13
2023-03-27T08:09:18.518Z,15.02
2023-03-27T08:11:45.306Z,15.29
2023-03-27T08:14:12.206Z,15.44
2023-03-27T08:16:39.350Z,15.63
2023-03-27T08:19:06.836Z,15.82
2023-03-27T08:21:34.371Z,15.77
2023-03-27T08:24:04.918Z,16.25
2023-03-27T08:26:32.296Z,16.22
2023-03-27T08:28:59.530Z,16.37
2023-03-27T08:31:28.011Z,16.49
2023-03-27T08:33:56.790Z,16.62
2023-03-27T08:36:23.756Z,16.58
2023-03-27T08:38:50.994Z,16.81
2023-03-27T08:41:27.706Z,16.93
2023-03-27T08:43:56.328Z,16.87
2023-03-27T08:46:29.184Z,17.14
2023-03-27T08:49:16.807Z,17.37
2023-03-27T08:51:47.867Z,17.35
2023-03-27T08:54:16.900Z,17.29
2023-03-27T08:56:44.283Z,17.28
2023-03-27T08:59:17.336Z,17.18
2023-03-27T09:01:54.974Z,17.52
2023-03-27T09:04:52.125Z,17.62
2023-03-27T09:07:40.836Z,17.68
2023-03-27T09:10:27.505Z,17.75
2023-03-27T09:13:08.757Z,17.98
2023-03-27T09:15:53.502Z,18.13
2023-03-27T09:18:36.780Z,18.27
2023-03-27T09:21:26.012Z,18.39
2023-03-27T09:23:55.360Z,18.45
2023-03-27T09:26:25.738Z,18.47
2023-03-27T09:29:20.498Z,18.62
2023-03-27T09:31:51.834Z,18.69
2023-03-27T09:34:29.626Z,18.80
2023-03-27T09:36:58.343Z,18.90
2023-03-27T09:39:32.198Z,19.00
2023-03-27T09:42:09.257Z,18.90
2023-03-27T09:44:37.937Z,19.20
2023-03-27T09:47:15.744Z,19.25
2023-03-27T09:49:45.699Z,18.95
2023-03-27T09:52:34.469Z,19.23
2023-03-27T09:55:03.201Z,19.15
2023-03-27T09:57:34.154Z,18.99
2023-03-27T10:00:31.374Z,19.29
2023-03-27T10:03:11.825Z,19.41
2023-03-27T10:05:39.063Z,19.40
2023-03-27T10:08:26.060Z,19.41
2023-03-27T10:10:58.364Z,19.25
2023-03-27T10:13:27.424Z,19.49
2023-03-27T10:16:01.370Z,19.60
2023-03-27T10:18:33.260Z,19.72
2023-03-27T10:21:02.570Z,19.80
2023-03-27T10:23:39.863Z,19.85
2023-03-27T10:26:08.593Z,20.40
2023-03-27T10:28:36.595Z,20.45
2023-03-27T10:31:11.543Z,20.37
2023-03-27T10:33:40.084Z,20.61
2023-03-27T10:36:08.351Z,20.55
2023-03-27T10:38:36.756Z,20.77
2023-03-27T10:41:14.078Z,20.76
2023-03-27T10:43:41.782Z,21.19
2023-03-27T10:46:12.003Z,21.22
2023-03-27T10:49:17.508Z,21.61
2023-03-27T10:51:59.624Z,21.88
2023-03-27T10:54:35.534Z,22.13
2023-03-27T10:57:17.503Z,22.36
2023-03-27T10:59:46.015Z,22.47
2023-03-27T11:02:35.055Z,22.12
2023-03-27T11:05:08.490Z,22.69
2023-03-27T11:07:44.280Z,22.94
2023-03-27T11:10:18.067Z,23.19
2023-03-27T11:12:51.063Z,23.19
2023-03-27T11:15:22.448Z,23.16
2023-03-27T11:18:10.850Z,23.59
2023-03-27T11:20:44.532Z,23.79
2023-03-27T11:23:18.560Z,24.04
2023-03-27T11:25:47.527Z,24.46
2023-03-27T11:28:31.398Z,24.50
2023-03-27T11:31:13.020Z,24.64
2023-03-27T11:33:52.342Z,24.63
2023-03-27T11:36:23.090Z,24.78
2023-03-27T11:38:54.892Z,24.94
2023-03-27T11:41:21.782Z,25.13
2023-03-27T11:43:48.677Z,25.28
2023-03-27T11:46:24.480Z,25.57
2023-03-27T11:49:00.931Z,25.81
2023-03-27T11:51:33.634Z,26.19
2023-03-27T11:54:16.593Z,26.55
2023-03-27T11:56:52.879Z,26.77
2023-03-27T11:59:24.639Z,27.21
2023-03-27T12:01:59.756Z,27.30
2023-03-27T12:04:50.820Z,27.45
2023-03-27T12:07:35.160Z,27.79
2023-03-27T12:10:32.276Z,28.05
2023-03-27T12:12:58.947Z,28.40
2023-03-27T12:15:41.865Z,28.61
2023-03-27T12:18:51.184Z,28.87
2023-03-27T12:21:29.567Z,29.19
2023-03-27T12:24:19.862Z,29.38
2023-03-27T12:26:49.867Z,29.63
2023-03-27T12:29:32.039Z,29.94
2023-03-27T12:32:35.849Z,30.36
2023-03-27T12:35:09.874Z,31.00
2023-03-27T12:37:48.145Z,31.63
2023-03-27T12:40:39.139Z,31.97
2023-03-27T12:43:21.024Z,32.30
2023-03-27T12:46:23.647Z,32.56
2023-03-27T12:49:29.345Z,33.03
2023-03-27T12:52:02.834Z,33.43
2023-03-27T12:54:32.884Z,33.17
2023-03-27T12:57:16.135Z,33.35
2023-03-27T12:59:49.178Z,33.76
2023-03-27T13:02:21.775Z,34.05
2023-03-27T13:05:23.993Z,34.20
2023-03-27T13:08:03.331Z,34.37
2023-03-27T13:11:14.844Z,34.45
2023-03-27T13:13:53.823Z,34.77
2023-03-27T13:16:20.919Z,35.22
2023-03-27T13:18:48.282Z,35.52
2023-03-27T13:21:36.297Z,34.92
2023-03-27T13:24:30.997Z,33.48
2023-03-27T13:27:36.715Z,31.88
2023-03-27T13:30:03.855Z,30.16
2023-03-27T13:32:40.330Z,29.39
2023-03-27T13:35:19.468Z,28.34
2023-03-27T13:37:49.258Z,27.52
2023-03-27T13:40:26.780Z,26.89
2023-03-27T13:43:22.901Z,26.17
2023-03-27T13:45:57.592Z,25.56
2023-03-27T13:48:27.620Z,24.94
2023-03-27T13:51:16.922Z,24.44
2023-03-27T13:54:21.311Z,24.04
2023-03-27T13:56:59.250Z,23.64
2023-03-27T13:59:37.702Z,23.09
2023-03-27T14:02:36.139Z,23.03
2023-03-27T14:05:36.624Z,22.82
2023-03-27T14:08:41.761Z,22.44
2023-03-27T14:11:27.010Z,22.60
2023-03-27T14:14:06.834Z,22.44
2023-03-27T14:16:52.149Z,22.35
2023-03-27T14:19:56.618Z,22.22
2023-03-27T14:22:28.111Z,22.10
2023-03-27T14:25:00.669Z,21.88
2023-03-27T14:27:27.946Z,21.75
2023-03-27T14:30:14.731Z,21.65
2023-03-27T14:32:43.262Z,21.75
2023-03-27T14:35:23.253Z,21.58
2023-03-27T14:37:56.101Z,20.69
2023-03-27T14:40:27.472Z,21.32
2023-03-27T14:42:55.555Z,21.12
2023-03-27T14:45:27.366Z,21.23
2023-03-27T14:48:00.608Z,21.18
2023-03-27T14:50:27.541Z,21.16
2023-03-27T14:52:54.559Z,21.10
2023-03-27T14:55:23.179Z,20.80
2023-03-27T14:57:54.126Z,20.84
2023-03-27T15:00:22.170Z,20.89
2023-03-27T15:02:49.475Z,20.81
2023-03-27T15:05:18.265Z,20.75
2023-03-27T15:07:49.124Z,20.72
2023-03-27T15:10:22.590Z,20.63
2023-03-27T15:12:49.520Z,20.54
2023-03-27T15:15:39.198Z,20.25
2023-03-27T15:18:12.754Z,20.36
2023-03-27T15:20:40.030Z,20.49
2023-03-27T15:23:06.757Z,20.49
2023-03-27T15:25:37.297Z,20.22
2023-03-27T15:28:10.808Z,20.26
2023-03-27T15:30:40.735Z,20.46
2023-03-27T15:33:08.567Z,20.39
2023-03-27T15:35:37.221Z,20.32
2023-03-27T15:38:05.394Z,20.15
2023-03-27T15:40:42.623Z,20.15
2023-03-27T15:43:18.364Z,20.23
2023-03-27T15:45:54.589Z,20.21
2023-03-27T15:48:23.323Z,19.91
2023-03-27T15:51:19.958Z,20.14
2023-03-27T15:53:51.041Z,20.24
2023-03-27T15:56:29.789Z,20.22
2023-03-27T15:59:00.154Z,20.18
2023-03-27T16:01:36.476Z,20.15
2023-03-27T16:04:13.914Z,20.10
2023-03-27T16:06:46.276Z,19.90
2023-03-27T16:09:28.987Z,20.02
2023-03-27T16:11:57.298Z,20.01
2023-03-27T16:14:31.940Z,19.75
2023-03-27T16:17:20.832Z,19.97
2023-03-27T16:19:57.417Z,19.96
2023-03-27T16:22:27.814Z,19.93
2023-03-27T16:24:56.710Z,19.88
2023-03-27T16:27:25.299Z,19.61
2023-03-27T16:29:52.531Z,19.85
2023-03-27T16:32:20.032Z,19.82
2023-03-27T16:34:51.596Z,19.80
2023-03-27T16:37:20.342Z,19.71
2023-03-27T16:39:47.196Z,19.77
2023-03-27T16:42:16.188Z,19.75
2023-03-27T16:44:43.949Z,19.69
2023-03-27T16:47:11.378Z,19.70
2023-03-27T16:49:38.387Z,19.60
2023-03-27T16:52:05.456Z,19.58
2023-03-27T16:54:32.273Z,19.51
2023-03-27T16:56:59.019Z,19.54
2023-03-27T16:59:26.640Z,19.50
2023-03-27T17:01:53.489Z,19.35
2023-03-27T17:04:20.849Z,19.12
2023-03-27T17:06:48.353Z,19.14
2023-03-27T17:09:16.510Z,19.06
2023-03-27T17:11:43.238Z,19.22
2023-03-27T17:14:10.874Z,19.22
2023-03-27T17:16:38.615Z,18.91
2023-03-27T17:19:05.469Z,19.15
2023-03-27T17:21:32.385Z,19.12
2023-03-27T17:24:00.958Z,18.99
2023-03-27T17:26:34.808Z,18.97
2023-03-27T17:29:03.488Z,18.76
2023-03-27T17:31:31.044Z,18.93
2023-03-27T17:33:57.937Z,18.78
2023-03-27T17:36:39.762Z,18.51
2023-03-27T17:39:10.547Z,18.71
2023-03-27T17:41:37.308Z,18.53
2023-03-27T17:44:05.645Z,18.60
2023-03-27T17:46:34.415Z,18.41
2023-03-27T17:49:01.744Z,18.54
2023-03-27T17:51:28.533Z,18.32
2023-03-27T17:53:55.721Z,18.33
2023-03-27T17:56:22.882Z,18.37
2023-03-27T17:58:50.287Z,18.31
2023-03-27T18:01:18.651Z,18.28
2023-03-27T18:03:46.228Z,18.22
2023-03-27T18:06:13.722Z,18.03
2023-03-27T18:08:41.246Z,17.94
2023-03-27T18:11:09.462Z,17.78
2023-03-27T18:13:36.398Z,18.01
2023-03-27T18:16:07.002Z,17.94
2023-03-27T18:18:34.207Z,17.62
2023-03-27T18:21:01.000Z,17.74
2023-03-27T18:23:28.159Z,17.82
2023-03-27T18:25:55.899Z,17.77
2023-03-27T18:28:23.989Z,17.50
2023-03-27T18:31:20.283Z,17.68
2023-03-27T18:33:47.065Z,17.47
2023-03-27T18:36:13.878Z,17.50
2023-03-27T18:38:41.020Z,17.39
2023-03-27T18:41:08.533Z,17.23
2023-03-27T18:43:35.329Z,17.46
2023-03-27T18:46:04.384Z,17.42
2023-03-27T18:48:31.278Z,17.39
2023-03-27T18:50:59.603Z,17.35
2023-03-27T18:53:26.604Z,17.32
2023-03-27T18:55:53.539Z,17.21
2023-03-27T18:58:21.515Z,17.24
2023-03-27T19:00:48.399Z,17.22
2023-03-27T19:03:18.026Z,17.20
2023-03-27T19:05:45.251Z,16.76
2023-03-27T19:08:12.282Z,17.17
2023-03-27T19:10:39.244Z,17.16
2023-03-27T19:13:06.053Z,17.15
2023-03-27T19:15:33.147Z,17.02
2023-03-27T19:17:59.894Z,17.13
2023-03-27T19:20:26.790Z,17.07
2023-03-27T19:22:53.727Z,17.09
2023-03-27T19:25:20.579Z,17.04
2023-03-27T19:27:47.294Z,17.07
2023-03-27T19:30:14.620Z,17.05
2023-03-27T19:32:41.515Z,17.02
2023-03-27T19:35:09.176Z,17.00
2023-03-27T19:37:36.588Z,17.00
2023-03-27T19:40:05.490Z,16.99
2023-03-27T19:42:32.507Z,16.99
2023-03-27T19:44:59.378Z,16.99
2023-03-27T19:47:26.381Z,16.99
2023-03-27T19:49:53.889Z,17.00
2023-03-27T19:52:20.966Z,17.02
2023-03-27T19:54:47.712Z,17.01
2023-03-27T19:57:14.838Z,17.02
2023-03-27T19:59:41.736Z,17.02
2023-03-27T20:02:11.403Z,16.94
2023-03-27T20:04:38.286Z,16.77
2023-03-27T20:07:07.288Z,16.61
2023-03-27T20:09:34.627Z,16.77
2023-03-27T20:12:01.494Z,16.69
2023-03-27T20:14:28.426Z,16.45
2023-03-27T20:16:55.246Z,16.81
2023-03-27T20:19:22.781Z,16.76
2023-03-27T20:21:49.593Z,16.85
2023-03-27T20:24:18.426Z,16.86
2023-03-27T20:26:48.504Z,16.88
2023-03-27T20:29:17.228Z,16.54
2023-03-27T20:31:44.089Z,16.95
2023-03-27T20:34:10.891Z,16.96
2023-03-27T20:36:39.329Z,16.86
2023-03-27T20:39:07.494Z,16.94
2023-03-27T20:41:39.144Z,16.97
2023-03-27T20:44:15.538Z,16.80
2023-03-27T20:46:51.604Z,16.97
2023-03-27T20:51:59.840Z,16.51
2023-03-27T20:54:27.471Z,17.00
2023-03-27T20:56:54.539Z,16.90
2023-03-27T20:59:21.711Z,16.72
2023-03-27T21:01:48.625Z,16.70
2023-03-27T21:04:15.578Z,16.94
2023-03-27T21:06:42.549Z,16.70
2023-03-27T21:09:09.739Z,16.53
2023-03-27T21:11:36.756Z,16.45
2023-03-27T21:14:03.736Z,16.67
2023-03-27T21:16:30.744Z,16.59
2023-03-27T21:18:57.538Z,16.49
2023-03-27T21:21:24.425Z,16.00
2023-03-27T21:23:53.955Z,16.29
2023-03-27T21:26:21.211Z,16.26
2023-03-27T21:28:51.540Z,16.19
2023-03-27T21:31:18.560Z,16.14
2023-03-27T21:33:45.494Z,16.07
2023-03-27T21:36:13.295Z,16.04
2023-03-27T21:38:40.408Z,15.99
2023-03-27T21:41:07.825Z,15.97
2023-03-27T21:43:34.756Z,15.65
2023-03-27T21:46:03.606Z,15.90
2023-03-27T21:48:31.391Z,15.86
2023-03-27T21:51:05.493Z,15.77
2023-03-27T21:53:32.410Z,15.79
2023-03-27T21:55:59.663Z,15.81
2023-03-27T21:58:26.938Z,15.79
2023-03-27T22:00:56.019Z,15.62
2023-03-27T22:03:23.052Z,15.63
2023-03-27T22:06:07.982Z,15.76
2023-03-27T22:08:37.246Z,15.67
2023-03-27T22:11:04.261Z,15.73
2023-03-27T22:13:31.247Z,15.73
2023-03-27T22:15:58.619Z,15.07
2023-03-27T22:18:25.793Z,15.72
2023-03-27T22:20:52.663Z,15.71
2023-03-27T22:23:19.664Z,15.72
2023-03-27T22:25:54.094Z,15.46
2023-03-27T22:28:21.335Z,15.69
2023-03-27T22:30:48.241Z,15.68
2023-03-27T22:33:15.189Z,15.52
2023-03-27T22:35:49.249Z,15.69
2023-03-27T22:38:16.419Z,15.68
2023-03-27T22:40:43.736Z,15.45
2023-03-27T22:43:11.097Z,15.15
2023-03-27T22:45:50.029Z,15.58
2023-03-27T22:48:17.011Z,15.07
2023-03-27T22:50:43.968Z,15.71
2023-03-27T22:53:11.159Z,15.73
2023-03-27T22:55:38.013Z,15.56
2023-03-27T22:58:04.832Z,15.78
2023-03-27T23:00:31.636Z,15.54
2023-03-27T23:02:58.722Z,15.76
2023-03-27T23:05:25.721Z,15.49
2023-03-27T23:07:52.583Z,15.74
2023-03-27T23:10:19.892Z,15.73
2023-03-27T23:12:46.804Z,15.73
2023-03-27T23:15:13.710Z,15.71
2023-03-27T23:17:40.725Z,15.73
2023-03-27T23:20:08.051Z,15.74
2023-03-27T23:22:34.906Z,15.73
2023-03-27T23:25:01.929Z,15.73
2023-03-27T23:27:28.857Z,15.68
2023-03-27T23:29:56.242Z,15.51
2023-03-27T23:32:23.336Z,15.75
2023-03-27T23:34:50.073Z,15.77
2023-03-27T23:37:16.785Z,15.80
2023-03-27T23:39:43.758Z,15.55
2023-03-27T23:42:10.810Z,15.32
2023-03-27T23:44:37.673Z,15.83
2023-03-27T23:47:04.709Z,15.59
2023-03-27T23:49:31.622Z,15.75
2023-03-27T23:51:58.421Z,15.63
2023-03-27T23:54:25.278Z,15.45
2023-03-27T23:56:52.183Z,15.32
2023-03-27T23:59:18.991Z,15.23
